createdAt,value
2022-11-17T00:01:08.732Z,99860.31
2022-11-17T00:03:39.812Z,99852.91
2022-11-17T00:06:10.114Z,99856.06
2022-11-17T00:08:40.970Z,99859.81
2022-11-17T00:11:14.106Z,99860.50
2022-11-17T00:13:57.256Z,99850.97
2022-11-17T00:16:27.792Z,99859.69
2022-11-17T00:19:11.026Z,99853.63
2022-11-17T00:21:41.297Z,99852.22
2022-11-17T00:24:11.999Z,99851.53
2022-11-17T00:27:01.629Z,99843.72
2022-11-17T00:29:32.870Z,99843.50
2022-11-17T00:32:15.643Z,99855.38
2022-11-17T00:34:46.334Z,99853.03
2022-11-17T00:37:18.475Z,99843.53
2022-11-17T00:39:49.195Z,99844.22
2022-11-17T00:42:22.083Z,99838.28
2022-11-17T00:44:52.828Z,99839.16
2022-11-17T00:47:22.828Z,99829.38
2022-11-17T00:49:53.152Z,99833.63
2022-11-17T00:52:23.194Z,99835.94
2022-11-17T00:54:53.540Z,99833.06
2022-11-17T00:57:26.168Z,99834.78
2022-11-17T00:59:56.530Z,99833.19
2022-11-17T01:02:26.571Z,99836.47
2022-11-17T01:04:56.959Z,99831.78
2022-11-17T01:07:27.111Z,99831.75
2022-11-17T01:09:57.534Z,99840.03
2022-11-17T01:12:30.140Z,99835.22
2022-11-17T01:15:00.512Z,99830.44
2022-11-17T01:17:30.598Z,99825.56
2022-11-17T01:20:00.956Z,99827.09
2022-11-17T01:22:30.994Z,99835.28
2022-11-17T01:25:01.368Z,99835.91
2022-11-17T01:27:33.936Z,99823.94
2022-11-17T01:30:04.289Z,99818.31
2022-11-17T01:32:34.325Z,99815.84
2022-11-17T01:35:04.686Z,99815.56
2022-11-17T01:37:34.659Z,99823.81
2022-11-17T01:40:05.103Z,99815.56
2022-11-17T01:42:37.828Z,99813.63
2022-11-17T01:45:22.288Z,99810.81
2022-11-17T01:47:55.196Z,99810.03
2022-11-17T01:50:32.736Z,99802.34
2022-11-17T01:53:07.337Z,99800.00
2022-11-17T01:55:41.203Z,99797.69
2022-11-17T01:58:17.325Z,99799.56
2022-11-17T02:00:47.858Z,99797.13
2022-11-17T02:03:18.050Z,99790.09
2022-11-17T02:05:54.665Z,99800.81
2022-11-17T02:08:29.042Z,99801.06
2022-11-17T02:11:00.285Z,99797.72
2022-11-17T02:13:33.326Z,99794.47
2022-11-17T02:16:03.857Z,99794.47
2022-11-17T02:18:33.982Z,99798.47
2022-11-17T02:21:25.544Z,99804.25
2022-11-17T02:24:25.951Z,99803.00
2022-11-17T02:27:28.063Z,99804.94
2022-11-17T02:30:05.347Z,99799.13
2022-11-17T02:32:48.693Z,99800.06
2022-11-17T02:35:26.376Z,99801.72
2022-11-17T02:38:08.815Z,99797.06
2022-11-17T02:40:46.453Z,99789.38
2022-11-17T02:43:33.637Z,99788.13
2022-11-17T02:46:10.505Z,99784.94
2022-11-17T02:48:44.515Z,99778.22
2022-11-17T02:51:23.345Z,99782.59
2022-11-17T02:53:56.046Z,99772.25
2022-11-17T02:56:26.338Z,99782.72
2022-11-17T02:59:00.864Z,99772.97
2022-11-17T03:01:59.703Z,99763.38
2022-11-17T03:04:34.361Z,99755.16
2022-11-17T03:07:18.886Z,99764.16
2022-11-17T03:09:59.114Z,99770.50
2022-11-17T03:12:38.328Z,99763.63
2022-11-17T03:15:17.466Z,99764.59
2022-11-17T03:17:59.232Z,99764.72
2022-11-17T03:20:36.095Z,99764.59
2022-11-17T03:23:11.785Z,99759.63
2022-11-17T03:25:48.359Z,99757.56
2022-11-17T03:28:20.408Z,99752.34
2022-11-17T03:30:53.079Z,99753.53
2022-11-17T03:33:27.581Z,99752.41
2022-11-17T03:36:03.826Z,99762.63
2022-11-17T03:38:41.245Z,99759.72
2022-11-17T03:41:15.166Z,99766.22
2022-11-17T03:43:49.631Z,99766.78
2022-11-17T03:46:24.846Z,99755.66
2022-11-17T03:49:05.374Z,99757.69
2022-11-17T03:51:36.011Z,99758.63
2022-11-17T03:54:06.755Z,99758.94
2022-11-17T03:56:43.161Z,99757.94
2022-11-17T03:59:18.516Z,99753.56
2022-11-17T04:01:49.200Z,99754.50
2022-11-17T04:04:23.891Z,99743.66
2022-11-17T04:06:55.141Z,99754.00
2022-11-17T04:09:25.464Z,99755.91
2022-11-17T04:12:08.439Z,99762.78
2022-11-17T04:14:51.097Z,99748.09
2022-11-17T04:17:21.817Z,99755.81
2022-11-17T04:19:54.728Z,99749.88
2022-11-17T04:22:25.342Z,99742.72
2022-11-17T04:24:55.566Z,99739.13
2022-11-17T04:27:38.586Z,99737.66
2022-11-17T04:30:09.774Z,99728.16
2022-11-17T04:32:40.354Z,99736.22
2022-11-17T04:35:13.365Z,99735.72
2022-11-17T04:37:43.953Z,99731.97
2022-11-17T04:40:14.614Z,99731.84
2022-11-17T04:42:42.606Z,99732.41
2022-11-17T04:45:13.166Z,99728.44
2022-11-17T04:47:43.707Z,99717.00
2022-11-17T04:50:16.681Z,99731.00
2022-11-17T04:52:47.206Z,99723.59
2022-11-17T04:55:17.514Z,99720.56
2022-11-17T04:57:48.070Z,99718.63
2022-11-17T05:00:20.020Z,99719.06
2022-11-17T05:02:50.290Z,99718.09
2022-11-17T05:05:22.849Z,99719.75
2022-11-17T05:07:53.138Z,99711.88
2022-11-17T05:10:43.410Z,99711.22
2022-11-17T05:13:25.039Z,99717.16
2022-11-17T05:16:08.301Z,99729.94
2022-11-17T05:18:38.547Z,99716.47
2022-11-17T05:21:13.199Z,99704.22
2022-11-17T05:23:55.741Z,99700.91
2022-11-17T05:26:28.322Z,99701.75
2022-11-17T05:29:00.284Z,99689.41
2022-11-17T05:31:31.742Z,99707.09
2022-11-17T05:34:03.029Z,99692.66
2022-11-17T05:36:35.893Z,99696.50
2022-11-17T05:39:06.786Z,99697.56
2022-11-17T05:41:37.599Z,99688.41
2022-11-17T05:44:08.208Z,99685.22
2022-11-17T05:46:38.169Z,99689.25
2022-11-17T05:49:08.540Z,99692.53
2022-11-17T05:51:41.356Z,99678.00
2022-11-17T05:54:11.829Z,99687.19
2022-11-17T05:56:45.123Z,99683.47
2022-11-17T05:59:27.747Z,99688.53
2022-11-17T06:02:03.578Z,99684.72
2022-11-17T06:04:34.371Z,99688.13
2022-11-17T06:07:07.373Z,99696.13
2022-11-17T06:09:39.590Z,99697.06
2022-11-17T06:12:12.016Z,99684.03
2022-11-17T06:14:42.116Z,99694.63
2022-11-17T06:17:22.151Z,99690.78
2022-11-17T06:19:56.328Z,99682.56
2022-11-17T06:22:30.367Z,99688.75
2022-11-17T06:25:01.614Z,99678.97
2022-11-17T06:27:34.838Z,99676.66
2022-11-17T06:30:06.660Z,99678.56
2022-11-17T06:32:40.245Z,99667.41
2022-11-17T06:35:13.015Z,99675.78
2022-11-17T06:37:46.143Z,99674.16
2022-11-17T06:40:18.719Z,99680.75
2022-11-17T06:43:02.894Z,99673.06
2022-11-17T06:45:35.821Z,99670.97
2022-11-17T06:48:06.727Z,99664.94
2022-11-17T06:50:37.699Z,99655.88
2022-11-17T06:53:12.934Z,99653.84
2022-11-17T06:55:42.930Z,99652.63
2022-11-17T06:58:14.303Z,99640.91
2022-11-17T07:00:44.825Z,99635.97
2022-11-17T07:03:15.417Z,99647.50
2022-11-17T07:05:48.387Z,99638.69
2022-11-17T07:08:22.665Z,99643.22
2022-11-17T07:10:54.799Z,99656.00
2022-11-17T07:13:26.666Z,99641.88
2022-11-17T07:15:56.988Z,99642.97
2022-11-17T07:18:27.548Z,99640.94
2022-11-17T07:20:57.496Z,99639.00
2022-11-17T07:23:30.406Z,99644.22
2022-11-17T07:26:00.581Z,99657.25
2022-11-17T07:28:32.171Z,99642.72
2022-11-17T07:31:05.394Z,99639.53
2022-11-17T07:33:36.395Z,99640.22
2022-11-17T07:36:07.648Z,99653.00
2022-11-17T07:38:41.687Z,99652.19
2022-11-17T07:41:15.036Z,99654.00
2022-11-17T07:43:45.404Z,99652.19
2022-11-17T07:46:17.384Z,99656.47
2022-11-17T07:48:47.925Z,99650.66
2022-11-17T07:51:17.958Z,99654.94
2022-11-17T07:53:50.844Z,99665.09
2022-11-17T07:56:20.807Z,99655.31
2022-11-17T07:58:51.223Z,99653.81
2022-11-17T08:01:21.410Z,99659.56
2022-11-17T08:03:51.792Z,99650.53
2022-11-17T08:06:22.752Z,99648.19
2022-11-17T08:08:55.618Z,99643.91
2022-11-17T08:11:25.829Z,99654.13
2022-11-17T08:13:57.095Z,99638.84
2022-11-17T08:16:30.650Z,99646.28
2022-11-17T08:19:01.021Z,99628.97
2022-11-17T08:21:31.013Z,99635.84
2022-11-17T08:24:04.179Z,99631.03
2022-11-17T08:26:34.204Z,99625.25
2022-11-17T08:29:04.569Z,99624.16
2022-11-17T08:31:34.556Z,99628.16
2022-11-17T08:34:04.813Z,99625.41
2022-11-17T08:36:34.760Z,99624.97
2022-11-17T08:39:07.821Z,99625.13
2022-11-17T08:41:37.829Z,99625.81
2022-11-17T08:44:08.579Z,99618.94
2022-11-17T08:46:38.522Z,99624.44
2022-11-17T08:49:08.798Z,99592.84
2022-11-17T08:51:38.957Z,99618.25
2022-11-17T08:54:14.258Z,99619.09
2022-11-17T08:56:46.108Z,99625.28
2022-11-17T08:59:16.810Z,99623.06
2022-11-17T09:01:46.892Z,99609.50
2022-11-17T09:04:18.007Z,99619.47
2022-11-17T09:06:48.432Z,99636.53
2022-11-17T09:09:22.015Z,99639.97
2022-11-17T09:11:52.401Z,99625.81
2022-11-17T09:14:22.710Z,99638.72
2022-11-17T09:16:54.268Z,99635.41
2022-11-17T09:19:24.709Z,99639.41
2022-11-17T09:21:54.723Z,99631.03
2022-11-17T09:24:27.994Z,99643.41
2022-11-17T09:26:58.625Z,99643.66
2022-11-17T09:29:28.936Z,99638.88
2022-11-17T09:31:59.321Z,99653.41
2022-11-17T09:34:29.645Z,99646.56
2022-11-17T09:36:59.648Z,99639.56
2022-11-17T09:39:32.506Z,99646.44
2022-11-17T09:42:02.614Z,99646.03
2022-11-17T09:44:40.296Z,99632.81
2022-11-17T09:47:30.121Z,99625.97
2022-11-17T09:50:17.183Z,99639.56
2022-11-17T09:53:07.949Z,99635.44
2022-11-17T09:55:43.044Z,99628.59
2022-11-17T09:58:20.655Z,99627.63
2022-11-17T10:00:53.040Z,99626.78
2022-11-17T10:03:25.385Z,99641.34
2022-11-17T10:05:56.777Z,99635.31
2022-11-17T10:08:32.399Z,99639.97
2022-11-17T10:11:25.662Z,99639.84
2022-11-17T10:13:55.791Z,99628.69
2022-11-17T10:16:32.437Z,99621.44
2022-11-17T10:19:05.323Z,99620.19
2022-11-17T10:21:35.624Z,99626.53
2022-11-17T10:24:05.873Z,99623.75
2022-11-17T10:26:48.254Z,99616.63
2022-11-17T10:29:25.179Z,99618.94
2022-11-17T10:31:55.476Z,99607.53
2022-11-17T10:34:41.132Z,99610.72
2022-11-17T10:37:28.152Z,99608.38
2022-11-17T10:40:17.340Z,99604.25
2022-11-17T10:43:02.674Z,99599.03
2022-11-17T10:45:32.975Z,99595.88
2022-11-17T10:48:21.615Z,99593.81
2022-11-17T10:50:56.828Z,99591.19
2022-11-17T10:53:34.974Z,99591.34
2022-11-17T10:56:15.919Z,99581.59
2022-11-17T10:59:04.964Z,99586.25
2022-11-17T11:01:37.754Z,99573.06
2022-11-17T11:04:10.525Z,99569.50
2022-11-17T11:06:40.588Z,99546.41
2022-11-17T11:09:19.111Z,99562.47
2022-11-17T11:11:52.550Z,99570.31
2022-11-17T11:14:51.409Z,99578.69
2022-11-17T11:17:22.667Z,99562.91
2022-11-17T11:19:55.274Z,99553.53
2022-11-17T11:22:34.480Z,99566.47
2022-11-17T11:25:17.446Z,99545.03
2022-11-17T11:27:58.971Z,99542.66
2022-11-17T11:30:40.950Z,99534.81
2022-11-17T11:33:25.886Z,99545.28
2022-11-17T11:36:07.635Z,99542.13
2022-11-17T11:38:55.575Z,99540.59
2022-11-17T11:41:41.989Z,99547.88
2022-11-17T11:44:27.783Z,99532.22
2022-11-17T11:47:08.969Z,99526.88
2022-11-17T11:49:45.108Z,99531.28
2022-11-17T11:52:21.951Z,99524.81
2022-11-17T11:54:57.181Z,99528.78
2022-11-17T11:57:32.190Z,99523.97
2022-11-17T12:00:05.258Z,99528.91
2022-11-17T12:02:46.687Z,99525.22
2022-11-17T12:05:27.319Z,99524.53
2022-11-17T12:08:10.384Z,99531.53
2022-11-17T12:10:48.150Z,99519.41
2022-11-17T12:13:21.027Z,99516.81
2022-11-17T12:15:52.454Z,99529.75
2022-11-17T12:18:34.903Z,99516.03
2022-11-17T12:21:08.153Z,99533.75
2022-11-17T12:24:18.694Z,99526.75
2022-11-17T12:26:49.117Z,99520.28
2022-11-17T12:29:33.290Z,99518.22
2022-11-17T12:32:05.205Z,99520.00
2022-11-17T12:34:39.545Z,99524.38
2022-11-17T12:37:31.059Z,99514.75
2022-11-17T12:40:10.538Z,99517.75
2022-11-17T12:43:18.857Z,99522.56
2022-11-17T12:46:15.467Z,99511.41
2022-11-17T12:48:55.763Z,99508.78
2022-11-17T12:51:35.325Z,99502.34
2022-11-17T12:54:22.335Z,99511.91
2022-11-17T12:57:00.867Z,99519.09
2022-11-17T13:00:07.762Z,99512.53
2022-11-17T13:03:02.998Z,99507.59
2022-11-17T13:05:33.859Z,99509.13
2022-11-17T13:08:30.648Z,99515.63
2022-11-17T13:11:07.994Z,99499.94
2022-11-17T13:13:42.571Z,99500.88
2022-11-17T13:16:22.097Z,99508.59
2022-11-17T13:18:53.169Z,99502.41
2022-11-17T13:21:32.389Z,99506.38
2022-11-17T13:24:05.075Z,99498.69
2022-11-17T13:26:38.267Z,99505.28
2022-11-17T13:29:10.378Z,99505.16
2022-11-17T13:31:41.055Z,99485.78
2022-11-17T13:34:21.273Z,99494.72
2022-11-17T13:37:00.065Z,99497.19
2022-11-17T13:39:32.935Z,99492.50
2022-11-17T13:42:04.956Z,99500.47
2022-11-17T13:44:35.923Z,99490.84
2022-11-17T13:47:21.274Z,99488.78
2022-11-17T13:49:51.427Z,99496.09
2022-11-17T13:52:40.717Z,99492.50
2022-11-17T13:55:22.568Z,99503.94
2022-11-17T13:57:58.112Z,99501.16
2022-11-17T14:00:28.339Z,99496.22
2022-11-17T14:02:59.826Z,99502.97
2022-11-17T14:05:31.346Z,99491.16
2022-11-17T14:08:14.899Z,99493.59
2022-11-17T14:10:48.284Z,99486.91
2022-11-17T14:17:24.765Z,99482.41
2022-11-17T14:19:55.106Z,99487.88
2022-11-17T14:22:31.760Z,99485.44
2022-11-17T14:25:02.588Z,99476.09
2022-11-17T14:27:49.172Z,99480.50
2022-11-17T14:30:22.580Z,99476.94
2022-11-17T14:32:53.083Z,99491.78
2022-11-17T14:35:23.447Z,99487.00
2022-11-17T14:37:53.662Z,99487.50
2022-11-17T14:40:24.536Z,99489.06
2022-11-17T14:42:57.326Z,99495.91
2022-11-17T14:45:27.624Z,99492.91
2022-11-17T14:47:57.699Z,99487.97
2022-11-17T14:50:28.362Z,99489.50
2022-11-17T14:52:58.484Z,99496.47
2022-11-17T14:55:30.272Z,99470.78
2022-11-17T14:58:02.846Z,99489.06
2022-11-17T15:00:33.182Z,99488.78
2022-11-17T15:03:03.169Z,99484.00
2022-11-17T15:05:33.621Z,99486.31
2022-11-17T15:08:03.828Z,99487.56
2022-11-17T15:10:34.243Z,99491.16
2022-11-17T15:13:06.965Z,99477.94
2022-11-17T15:15:39.274Z,99478.78
2022-11-17T15:18:09.366Z,99476.28
2022-11-17T15:20:39.821Z,99469.13
2022-11-17T15:23:10.259Z,99486.03
2022-11-17T15:25:41.123Z,99479.59
2022-11-17T15:28:18.904Z,99479.59
2022-11-17T15:30:52.329Z,99487.59
2022-11-17T15:33:22.378Z,99489.78
2022-11-17T15:36:03.170Z,99495.31
2022-11-17T15:38:34.161Z,99491.72
2022-11-17T15:41:04.799Z,99485.81
2022-11-17T15:43:40.543Z,99485.66
2022-11-17T15:46:12.513Z,99504.91
2022-11-17T15:48:44.742Z,99487.88
2022-11-17T15:51:17.093Z,99489.53
2022-11-17T15:53:48.387Z,99491.16
2022-11-17T15:56:20.579Z,99491.56
2022-11-17T15:58:58.195Z,99494.06
2022-11-17T16:01:30.046Z,99489.41
2022-11-17T16:04:01.461Z,99492.81
2022-11-17T16:06:32.749Z,99483.34
2022-11-17T16:09:03.031Z,99484.03
2022-11-17T16:11:33.507Z,99485.16
2022-11-17T16:14:07.334Z,99488.56
2022-11-17T16:16:40.262Z,99493.66
2022-11-17T16:19:10.577Z,99486.78
2022-11-17T16:21:40.863Z,99490.91
2022-11-17T16:24:13.837Z,99489.13
2022-11-17T16:26:44.814Z,99492.28
2022-11-17T16:29:18.054Z,99465.22
2022-11-17T16:31:48.522Z,99488.44
2022-11-17T16:34:19.223Z,99472.91
2022-11-17T16:36:49.491Z,99479.94
2022-11-17T16:39:20.281Z,99468.53
2022-11-17T16:41:52.654Z,99481.44
2022-11-17T16:44:25.272Z,99479.25
2022-11-17T16:46:58.533Z,99473.75
2022-11-17T16:49:30.976Z,99479.25
2022-11-17T16:52:01.264Z,99476.47
2022-11-17T16:54:31.586Z,99475.50
2022-11-17T16:57:01.912Z,99478.97
2022-11-17T16:59:34.489Z,99476.47
2022-11-17T17:02:04.890Z,99480.59
2022-11-17T17:04:35.291Z,99483.22
2022-11-17T17:07:05.640Z,99483.09
2022-11-17T17:09:37.442Z,99476.06
2022-11-17T17:12:08.888Z,99488.44
2022-11-17T17:14:41.481Z,99479.25
2022-11-17T17:17:11.768Z,99495.44
2022-11-17T17:19:41.716Z,99488.59
2022-11-17T17:22:11.953Z,99496.41
2022-11-17T17:24:41.892Z,99488.84
2022-11-17T17:27:12.378Z,99492.41
2022-11-17T17:29:45.037Z,99494.88
2022-11-17T17:32:15.562Z,99488.03
2022-11-17T17:34:45.526Z,99493.22
2022-11-17T17:37:15.842Z,99491.31
2022-11-17T17:39:45.818Z,99487.06
2022-11-17T17:42:16.272Z,99489.66
2022-11-17T17:44:48.848Z,99487.72
2022-11-17T17:47:19.254Z,99487.03
2022-11-17T17:49:49.224Z,99484.59
2022-11-17T17:52:19.833Z,99494.56
2022-11-17T17:54:50.088Z,99495.56
2022-11-17T17:57:20.687Z,99498.44
2022-11-17T17:59:53.574Z,99494.19
2022-11-17T18:02:24.166Z,99500.34
2022-11-17T18:04:54.351Z,99498.03
2022-11-17T18:07:24.747Z,99506.81
2022-11-17T18:09:54.917Z,99500.47
2022-11-17T18:12:25.399Z,99498.03
2022-11-17T18:14:58.008Z,99497.34
2022-11-17T18:17:28.302Z,99494.03
2022-11-17T18:19:58.424Z,99489.78
2022-11-17T18:22:28.882Z,99491.44
2022-11-17T18:24:58.864Z,99489.50
2022-11-17T18:27:29.238Z,99497.72
2022-11-17T18:30:01.795Z,99494.16
2022-11-17T18:32:32.153Z,99493.75
2022-11-17T18:35:02.188Z,99500.63
2022-11-17T18:37:33.015Z,99506.41
2022-11-17T18:40:03.921Z,99502.13
2022-11-17T18:42:35.163Z,99505.81
2022-11-17T18:45:16.154Z,99511.72
2022-11-17T18:47:49.007Z,99510.75
2022-11-17T18:50:19.306Z,99504.06
2022-11-17T18:52:49.886Z,99507.34
2022-11-17T18:55:19.933Z,99511.00
2022-11-17T18:57:50.241Z,99520.22
2022-11-17T19:00:26.545Z,99514.47
2022-11-17T19:02:57.109Z,99512.53
2022-11-17T19:05:27.046Z,99515.38
2022-11-17T19:07:57.352Z,99513.31
2022-11-17T19:10:27.316Z,99519.66
2022-11-17T19:12:57.658Z,99514.00
2022-11-17T19:15:30.434Z,99514.00
2022-11-17T19:18:00.936Z,99511.69
2022-11-17T19:20:31.067Z,99508.69
2022-11-17T19:23:01.622Z,99506.72
2022-11-17T19:25:32.059Z,99511.41
2022-11-17T19:28:02.822Z,99511.13
2022-11-17T19:30:35.520Z,99501.50
2022-11-17T19:33:06.817Z,99507.69
2022-11-17T19:35:44.003Z,99510.72
2022-11-17T19:38:14.787Z,99508.84
2022-11-17T19:40:45.052Z,99504.69
2022-11-17T19:43:17.956Z,99496.81
2022-11-17T19:45:50.699Z,99497.41
2022-11-17T19:48:21.181Z,99510.03
2022-11-17T19:50:55.647Z,99511.91
2022-11-17T19:53:49.481Z,99510.22
2022-11-17T19:56:24.500Z,99512.25
2022-11-17T19:58:55.947Z,99516.06
2022-11-17T20:01:30.487Z,99516.66
2022-11-17T20:04:03.228Z,99511.09
2022-11-17T20:06:37.902Z,99520.03
2022-11-17T20:09:10.926Z,99525.41
2022-11-17T20:11:42.196Z,99519.66
2022-11-17T20:14:14.525Z,99527.44
2022-11-17T20:16:49.711Z,99528.78
2022-11-17T20:19:20.368Z,99531.38
2022-11-17T20:21:50.742Z,99533.56
2022-11-17T20:24:21.579Z,99533.47
2022-11-17T20:26:51.876Z,99533.41
2022-11-17T20:29:24.433Z,99533.00
2022-11-17T20:31:57.506Z,99539.56
2022-11-17T20:34:28.407Z,99530.91
2022-11-17T20:37:01.603Z,99540.94
2022-11-17T20:39:32.191Z,99529.53
2022-11-17T20:42:02.418Z,99536.97
2022-11-17T20:44:32.918Z,99546.06
2022-11-17T20:47:05.479Z,99543.81
2022-11-17T20:49:36.699Z,99550.88
2022-11-17T20:52:12.089Z,99547.06
2022-11-17T20:54:45.361Z,99536.22
2022-11-17T20:57:15.787Z,99540.59
2022-11-17T20:59:46.595Z,99537.88
2022-11-17T21:02:19.240Z,99537.00
2022-11-17T21:04:49.671Z,99543.88
2022-11-17T21:07:19.747Z,99539.50
2022-11-17T21:09:50.128Z,99534.41
2022-11-17T21:12:20.515Z,99529.31
2022-11-17T21:14:51.030Z,99536.22
2022-11-17T21:17:36.236Z,99526.44
2022-11-17T21:20:07.591Z,99528.78
2022-11-17T21:22:37.768Z,99534.13
2022-11-17T21:25:09.570Z,99547.00
2022-11-17T21:27:39.876Z,99550.25
2022-11-17T21:30:12.326Z,99545.19
2022-11-17T21:32:45.439Z,99545.63
2022-11-17T21:35:15.935Z,99541.31
2022-11-17T21:37:46.019Z,99556.56
2022-11-17T21:40:16.980Z,99546.94
2022-11-17T21:42:47.294Z,99539.13
2022-11-17T21:45:18.094Z,99539.84
2022-11-17T21:47:55.202Z,99548.13
2022-11-17T21:50:28.728Z,99547.78
2022-11-17T21:52:58.967Z,99554.06
2022-11-17T21:55:30.030Z,99560.94
2022-11-17T21:58:00.088Z,99561.06
2022-11-17T22:00:30.976Z,99567.94
2022-11-17T22:03:03.772Z,99571.66
2022-11-17T22:05:34.713Z,99567.03
2022-11-17T22:08:04.920Z,99557.25
2022-11-17T22:10:35.346Z,99570.09
2022-11-17T22:13:08.256Z,99571.94
2022-11-17T22:15:38.847Z,99574.44
2022-11-17T22:18:11.679Z,99580.00
2022-11-17T22:20:42.721Z,99571.94
2022-11-17T22:23:13.330Z,99567.31
2022-11-17T22:25:45.771Z,99566.84
2022-11-17T22:28:16.720Z,99566.72
2022-11-17T22:30:47.336Z,99569.00
2022-11-17T22:33:20.214Z,99571.16
2022-11-17T22:35:50.872Z,99574.28
2022-11-17T22:38:21.415Z,99568.47
2022-11-17T22:40:51.954Z,99574.03
2022-11-17T22:43:21.919Z,99577.44
2022-11-17T22:45:52.353Z,99577.41
2022-11-17T22:48:25.372Z,99575.34
2022-11-17T22:50:55.860Z,99583.75
2022-11-17T22:53:26.102Z,99596.06
2022-11-17T22:55:57.253Z,99594.16
2022-11-17T22:58:27.150Z,99595.94
2022-11-17T23:00:57.469Z,99606.59
2022-11-17T23:03:30.099Z,99593.47
2022-11-17T23:06:03.877Z,99595.22
2022-11-17T23:08:34.620Z,99588.63
2022-11-17T23:13:56.156Z,99593.03
2022-11-17T23:16:26.826Z,99600.31
2022-11-17T23:19:00.646Z,99606.50
2022-11-17T23:21:31.218Z,99606.50
2022-11-17T23:24:01.346Z,99600.00
2022-11-17T23:26:31.763Z,99591.41
2022-11-17T23:29:01.796Z,99583.97
2022-11-17T23:31:32.144Z,99577.69
2022-11-17T23:34:04.820Z,99567.97
2022-11-17T23:36:35.263Z,99585.94
2022-11-17T23:39:05.383Z,99603.47
2022-11-17T23:41:35.762Z,99596.50
2022-11-17T23:44:06.419Z,99600.94
2022-11-17T23:46:36.841Z,99604.09
2022-11-17T23:49:09.627Z,99611.53
2022-11-17T23:51:40.068Z,99611.78
2022-11-17T23:54:10.319Z,99613.88
2022-11-17T23:56:40.691Z,99622.19
2022-11-17T23:59:10.874Z,99621.16
